MST,Max TemperatureF,Mean TemperatureF,Min TemperatureF,Max Dew PointF,MeanDew PointF,Min DewpointF,Max Humidity, Mean Humidity, Min Humidity, Max Sea Level PressureIn, Mean Sea Level PressureIn, Min Sea Level PressureIn, Max VisibilityMiles, Mean VisibilityMiles, Min VisibilityMiles, Max Wind SpeedMPH, Mean Wind SpeedMPH, Max Gust SpeedMPH,PrecipitationIn, CloudCover, Events, WindDirDegrees
2012-1-1,28,18,8,12,5,-2,79,50,29,30.63,30.51,30.30,10,10,10,20,13,25,0.00,1,,293
2012-1-2,39,21,3,21,11,-2,92,67,45,30.57,30.32,29.99,10,10,10,14,5,,0.00,0,,192
2012-1-3,51,40,30,27,24,19,75,51,35,30.14,29.98,29.87,10,10,10,34,14,43,0.00,0,,271
2012-1-4,55,40,26,25,23,19,80,48,31,30.11,30.03,29.91,10,10,10,15,9,20,0.00,0,,224
2012-1-5,64,48,33,27,23,18,56,38,22,29.89,29.80,29.71,10,10,10,26,11,36,0.00,1,,252
2012-1-6,42,32,19,19,16,10,74,52,33,30.04,29.96,29.85,10,10,10,24,15,34,0.00,0,,283
2012-1-7,39,26,12,19,14,3,86,67,38,30.12,30.07,30.00,10,10,10,10,4,,0.00,1,,183
2012-1-8,41,28,15,25,17,10,93,62,41,30.09,30.03,29.97,10,10,10,17,8,20,0.00,1,,218
2012-1-9,57,44,30,28,26,19,80,52,31,30.02,29.96,29.90,10,10,10,20,11,24,0.00,0,,257
2012-1-10,46,36,26,36,26,19,93,71,43,29.94,29.81,29.71,10,9,2,22,10,29,0.00,4,,244
2012-1-11,24,16,8,19,4,-4,86,66,52,30.29,30.23,30.09,10,10,5,26,21,34,0.00,5,,301
2012-1-12,26,14,3,21,9,-6,86,75,63,30.21,30.09,30.00,10,10,8,20,6,28,0.00,6,,229
2012-1-13,37,24,10,27,18,9,100,79,56,29.99,29.87,29.75,10,10,7,24,9,31,0.00,4,,250
2012-1-14,35,25,15,21,16,10,93,73,56,30.01,29.89,29.66,10,10,10,13,6,,0.00,2,,169
2012-1-15,35,25,15,25,17,7,80,67,48,29.94,29.68,29.54,10,10,10,31,15,40,0.00,3,,279
2012-1-16,5,0,-5,0,-7,-15,92,75,65,30.17,30.08,30.01,10,10,10,13,7,,0.00,3,,347
2012-1-17,10,0,-11,3,-6,-27,100,78,45,30.18,30.03,29.74,10,9,2,13,4,,0.00,3,,50
2012-1-18,0,-7,-14,-2,-17,-26,92,71,54,30.02,29.92,29.67,10,9,3,22,12,26,0.00,4,,323
2012-1-19,0,-6,-11,-6,-11,-18,84,73,65,29.98,29.89,29.78,10,8,2,7,4,,0.00,7,,233
2012-1-20,8,3,-2,0,-4,-9,92,73,61,30.06,29.94,29.81,10,10,3,10,7,,0.00,6,,94
2012-1-21,33,17,1,28,13,-11,100,74,56,29.68,29.33,29.21,10,10,10,13,3,,0.00,4,,185
2012-1-22,37,24,12,28,18,9,100,69,56,29.79,29.61,29.30,10,10,10,30,15,41,0.00,4,,304
2012-1-23,32,16,0,18,10,-8,100,77,55,29.83,29.78,29.74,10,9,0,14,6,,0.00,1,,208
2012-1-24,37,26,15,19,16,10,86,68,48,30.09,30.00,29.86,10,10,10,13,6,,0.00,1,,208
2012-1-25,51,35,19,30,20,10,68,52,39,29.83,29.69,29.61,10,10,10,40,16,53,0.00,4,,230
2012-1-26,42,30,19,32,23,16,93,69,42,29.95,29.81,29.59,10,10,10,23,13,30,0.00,2,,246
2012-1-27,35,27,19,28,16,10,86,66,44,30.13,30.03,29.71,10,10,2,29,20,40,0.00,3,,294
2012-1-28,33,24,14,14,11,7,86,58,41,30.10,30.05,30.00,10,10,10,24,17,30,0.00,1,,288
2012-1-29,51,35,19,30,22,12,74,58,41,30.03,29.74,29.61,10,10,10,23,8,31,0.00,6,,214
2012-1-30,53,44,35,36,28,25,87,59,38,29.65,29.55,29.49,10,10,10,25,11,34,0.00,5,,242
2012-1-31,48,39,30,30,24,19,70,55,37,29.92,29.82,29.68,10,10,10,25,15,32,0.00,3,,270